sensor_id;sensor_type;location;lat;lon;timestamp;P1;durP1;ratioP1;P2;durP2;ratioP2
28007;SDS011;15333;50.010;20.020;2023-02-28T00:02:49;40.05;;;17.95;;
28007;SDS011;15333;50.010;20.020;2023-02-28T00:05:50;41.97;;;19.00;;
28007;SDS011;15333;50.010;20.020;2023-02-28T00:08:50;38.17;;;18.65;;
28007;SDS011;15333;50.010;20.020;2023-02-28T00:11:51;44.97;;;20.00;;
28007;SDS011;15333;50.010;20.020;2023-02-28T00:14:52;78.75;;;34.72;;
28007;SDS011;15333;50.010;20.020;2023-02-28T00:17:54;37.90;;;18.83;;
28007;SDS011;15333;50.010;20.020;2023-02-28T00:20:55;41.42;;;19.13;;
28007;SDS011;15333;50.010;20.020;2023-02-28T00:23:56;36.67;;;17.98;;
28007;SDS011;15333;50.010;20.020;2023-02-28T00:26:56;39.53;;;19.17;;
28007;SDS011;15333;50.010;20.020;2023-02-28T00:29:57;39.95;;;20.20;;
28007;SDS011;15333;50.010;20.020;2023-02-28T00:32:58;42.05;;;19.23;;
28007;SDS011;15333;50.010;20.020;2023-02-28T00:36:03;41.80;;;20.30;;
28007;SDS011;15333;50.010;20.020;2023-02-28T00:39:12;41.85;;;19.88;;
28007;SDS011;15333;50.010;20.020;2023-02-28T00:42:13;42.35;;;20.27;;
28007;SDS011;15333;50.010;20.020;2023-02-28T00:45:14;42.45;;;20.08;;
28007;SDS011;15333;50.010;20.020;2023-02-28T00:48:15;40.13;;;20.08;;
28007;SDS011;15333;50.010;20.020;2023-02-28T00:51:16;42.08;;;20.25;;
28007;SDS011;15333;50.010;20.020;2023-02-28T00:54:18;46.28;;;21.17;;
28007;SDS011;15333;50.010;20.020;2023-02-28T00:57:21;45.33;;;22.55;;
28007;SDS011;15333;50.010;20.020;2023-02-28T01:00:23;51.08;;;21.63;;
28007;SDS011;15333;50.010;20.020;2023-02-28T01:03:24;52.85;;;22.45;;
28007;SDS011;15333;50.010;20.020;2023-02-28T01:06:26;44.83;;;21.48;;
28007;SDS011;15333;50.010;20.020;2023-02-28T01:09:26;48.88;;;22.50;;
28007;SDS011;15333;50.010;20.020;2023-02-28T01:12:27;46.08;;;22.05;;
28007;SDS011;15333;50.010;20.020;2023-02-28T01:15:28;42.90;;;21.85;;
28007;SDS011;15333;50.010;20.020;2023-02-28T01:18:29;52.00;;;23.25;;
28007;SDS011;15333;50.010;20.020;2023-02-28T01:21:30;50.85;;;22.67;;
28007;SDS011;15333;50.010;20.020;2023-02-28T01:24:32;48.40;;;23.48;;
28007;SDS011;15333;50.010;20.020;2023-02-28T01:27:33;43.10;;;21.63;;
28007;SDS011;15333;50.010;20.020;2023-02-28T01:30:35;46.03;;;22.08;;
28007;SDS011;15333;50.010;20.020;2023-02-28T01:33:36;48.10;;;21.63;;
28007;SDS011;15333;50.010;20.020;2023-02-28T01:36:38;45.28;;;22.65;;
28007;SDS011;15333;50.010;20.020;2023-02-28T01:39:39;44.25;;;21.63;;
28007;SDS011;15333;50.010;20.020;2023-02-28T01:42:40;41.47;;;22.15;;
28007;SDS011;15333;50.010;20.020;2023-02-28T01:45:40;49.22;;;22.45;;
28007;SDS011;15333;50.010;20.020;2023-02-28T01:48:44;49.03;;;23.77;;
28007;SDS011;15333;50.010;20.020;2023-02-28T01:51:53;49.17;;;23.00;;
28007;SDS011;15333;50.010;20.020;2023-02-28T01:54:59;51.38;;;23.02;;
28007;SDS011;15333;50.010;20.020;2023-02-28T01:58:04;44.97;;;22.23;;
28007;SDS011;15333;50.010;20.020;2023-02-28T02:01:07;46.70;;;22.95;;
28007;SDS011;15333;50.010;20.020;2023-02-28T02:04:08;52.75;;;25.48;;
28007;SDS011;15333;50.010;20.020;2023-02-28T02:07:09;44.40;;;20.27;;
28007;SDS011;15333;50.010;20.020;2023-02-28T02:10:18;48.33;;;22.35;;
28007;SDS011;15333;50.010;20.020;2023-02-28T02:27:10;46.95;;;21.05;;
28007;SDS011;15333;50.010;20.020;2023-02-28T02:30:27;44.38;;;21.40;;
28007;SDS011;15333;50.010;20.020;2023-02-28T02:37:13;45.40;;;22.83;;
28007;SDS011;15333;50.010;20.020;2023-02-28T02:40:36;44.65;;;23.05;;
28007;SDS011;15333;50.010;20.020;2023-02-28T02:46:55;49.00;;;24.30;;
28007;SDS011;15333;50.010;20.020;2023-02-28T02:50:05;53.87;;;26.80;;
28007;SDS011;15333;50.010;20.020;2023-02-28T02:53:09;62.22;;;27.38;;
28007;SDS011;15333;50.010;20.020;2023-02-28T02:56:13;58.35;;;27.25;;
28007;SDS011;15333;50.010;20.020;2023-02-28T02:59:20;54.42;;;25.95;;
28007;SDS011;15333;50.010;20.020;2023-02-28T03:02:24;56.65;;;27.02;;
28007;SDS011;15333;50.010;20.020;2023-02-28T03:05:30;52.88;;;26.45;;
28007;SDS011;15333;50.010;20.020;2023-02-28T03:08:39;61.17;;;26.30;;
28007;SDS011;15333;50.010;20.020;2023-02-28T03:11:41;56.65;;;27.48;;
28007;SDS011;15333;50.010;20.020;2023-02-28T03:24:28;59.08;;;28.23;;
28007;SDS011;15333;50.010;20.020;2023-02-28T03:27:42;61.50;;;30.25;;
28007;SDS011;15333;50.010;20.020;2023-02-28T03:30:49;60.33;;;28.83;;
28007;SDS011;15333;50.010;20.020;2023-02-28T03:33:56;64.22;;;31.75;;
28007;SDS011;15333;50.010;20.020;2023-02-28T03:37:10;70.05;;;32.17;;
28007;SDS011;15333;50.010;20.020;2023-02-28T03:40:22;64.78;;;30.75;;
28007;SDS011;15333;50.010;20.020;2023-02-28T03:43:28;71.32;;;32.85;;
28007;SDS011;15333;50.010;20.020;2023-02-28T03:46:35;63.30;;;32.25;;
28007;SDS011;15333;50.010;20.020;2023-02-28T03:49:46;72.80;;;35.03;;
28007;SDS011;15333;50.010;20.020;2023-02-28T03:56:06;71.07;;;35.58;;
28007;SDS011;15333;50.010;20.020;2023-02-28T03:59:24;69.65;;;36.20;;
28007;SDS011;15333;50.010;20.020;2023-02-28T04:02:29;80.55;;;37.70;;
28007;SDS011;15333;50.010;20.020;2023-02-28T04:05:30;75.18;;;37.35;;
28007;SDS011;15333;50.010;20.020;2023-02-28T04:08:32;79.28;;;37.97;;
28007;SDS011;15333;50.010;20.020;2023-02-28T04:11:37;81.78;;;41.28;;
28007;SDS011;15333;50.010;20.020;2023-02-28T04:14:40;81.07;;;40.25;;
28007;SDS011;15333;50.010;20.020;2023-02-28T04:17:41;85.45;;;41.80;;
28007;SDS011;15333;50.010;20.020;2023-02-28T04:20:42;81.93;;;41.03;;
28007;SDS011;15333;50.010;20.020;2023-02-28T04:23:43;87.28;;;42.97;;
28007;SDS011;15333;50.010;20.020;2023-02-28T04:26:45;82.63;;;39.10;;
28007;SDS011;15333;50.010;20.020;2023-02-28T04:29:48;85.22;;;40.53;;
28007;SDS011;15333;50.010;20.020;2023-02-28T04:32:49;83.93;;;42.17;;
28007;SDS011;15333;50.010;20.020;2023-02-28T04:39:21;82.28;;;39.08;;
28007;SDS011;15333;50.010;20.020;2023-02-28T04:42:24;77.28;;;39.42;;
28007;SDS011;15333;50.010;20.020;2023-02-28T04:45:25;80.60;;;41.17;;
28007;SDS011;15333;50.010;20.020;2023-02-28T04:48:27;88.88;;;40.95;;
28007;SDS011;15333;50.010;20.020;2023-02-28T04:51:30;81.93;;;40.05;;
28007;SDS011;15333;50.010;20.020;2023-02-28T04:54:31;88.30;;;41.65;;
28007;SDS011;15333;50.010;20.020;2023-02-28T04:57:32;74.80;;;38.33;;
28007;SDS011;15333;50.010;20.020;2023-02-28T05:00:33;85.03;;;41.30;;
28007;SDS011;15333;50.010;20.020;2023-02-28T05:03:34;78.05;;;39.50;;
28007;SDS011;15333;50.010;20.020;2023-02-28T05:06:34;76.53;;;39.90;;
28007;SDS011;15333;50.010;20.020;2023-02-28T05:09:35;84.50;;;41.95;;
28007;SDS011;15333;50.010;20.020;2023-02-28T05:12:36;72.97;;;35.65;;
28007;SDS011;15333;50.010;20.020;2023-02-28T05:15:37;71.05;;;30.52;;
28007;SDS011;15333;50.010;20.020;2023-02-28T05:18:38;57.63;;;29.42;;
28007;SDS011;15333;50.010;20.020;2023-02-28T05:21:53;61.25;;;32.35;;
28007;SDS011;15333;50.010;20.020;2023-02-28T05:24:55;61.70;;;31.10;;
28007;SDS011;15333;50.010;20.020;2023-02-28T05:27:56;63.00;;;31.58;;
28007;SDS011;15333;50.010;20.020;2023-02-28T05:30:56;68.13;;;31.33;;
28007;SDS011;15333;50.010;20.020;2023-02-28T05:33:58;71.97;;;36.13;;
28007;SDS011;15333;50.010;20.020;2023-02-28T05:36:58;69.70;;;34.97;;
28007;SDS011;15333;50.010;20.020;2023-02-28T05:39:59;70.00;;;35.25;;
28007;SDS011;15333;50.010;20.020;2023-02-28T05:43:00;69.32;;;36.55;;
28007;SDS011;15333;50.010;20.020;2023-02-28T05:46:02;74.20;;;36.72;;
28007;SDS011;15333;50.010;20.020;2023-02-28T05:49:05;72.85;;;39.40;;
28007;SDS011;15333;50.010;20.020;2023-02-28T05:52:06;83.38;;;39.55;;
28007;SDS011;15333;50.010;20.020;2023-02-28T05:55:06;78.03;;;38.75;;
28007;SDS011;15333;50.010;20.020;2023-02-28T05:58:08;76.05;;;38.95;;
28007;SDS011;15333;50.010;20.020;2023-02-28T06:01:23;67.55;;;35.45;;
28007;SDS011;15333;50.010;20.020;2023-02-28T06:04:24;72.00;;;36.17;;
28007;SDS011;15333;50.010;20.020;2023-02-28T06:07:25;77.63;;;38.25;;
28007;SDS011;15333;50.010;20.020;2023-02-28T06:10:26;70.47;;;34.90;;
28007;SDS011;15333;50.010;20.020;2023-02-28T06:13:27;67.53;;;35.45;;
28007;SDS011;15333;50.010;20.020;2023-02-28T06:16:29;68.75;;;35.20;;
28007;SDS011;15333;50.010;20.020;2023-02-28T06:19:31;72.07;;;36.28;;
28007;SDS011;15333;50.010;20.020;2023-02-28T06:22:32;72.00;;;35.78;;
28007;SDS011;15333;50.010;20.020;2023-02-28T06:25:33;76.57;;;37.00;;
28007;SDS011;15333;50.010;20.020;2023-02-28T06:28:34;67.95;;;35.92;;
28007;SDS011;15333;50.010;20.020;2023-02-28T06:31:35;71.32;;;37.05;;
28007;SDS011;15333;50.010;20.020;2023-02-28T06:34:36;80.43;;;39.42;;
28007;SDS011;15333;50.010;20.020;2023-02-28T06:37:37;84.10;;;41.35;;
28007;SDS011;15333;50.010;20.020;2023-02-28T06:40:38;93.10;;;43.50;;
28007;SDS011;15333;50.010;20.020;2023-02-28T06:43:40;91.93;;;44.88;;
28007;SDS011;15333;50.010;20.020;2023-02-28T06:46:43;99.47;;;47.78;;
28007;SDS011;15333;50.010;20.020;2023-02-28T06:49:45;98.43;;;45.67;;
28007;SDS011;15333;50.010;20.020;2023-02-28T06:52:46;93.72;;;45.35;;
28007;SDS011;15333;50.010;20.020;2023-02-28T06:55:47;99.65;;;45.45;;
28007;SDS011;15333;50.010;20.020;2023-02-28T06:58:49;96.50;;;45.85;;
28007;SDS011;15333;50.010;20.020;2023-02-28T07:01:51;86.50;;;42.35;;
28007;SDS011;15333;50.010;20.020;2023-02-28T07:04:52;78.90;;;39.00;;
28007;SDS011;15333;50.010;20.020;2023-02-28T07:07:53;75.63;;;38.22;;
28007;SDS011;15333;50.010;20.020;2023-02-28T07:10:54;76.22;;;38.35;;
28007;SDS011;15333;50.010;20.020;2023-02-28T07:13:56;78.95;;;38.30;;
28007;SDS011;15333;50.010;20.020;2023-02-28T07:16:58;76.32;;;37.90;;
28007;SDS011;15333;50.010;20.020;2023-02-28T07:19:59;76.93;;;36.33;;
28007;SDS011;15333;50.010;20.020;2023-02-28T07:23:00;78.72;;;37.85;;
28007;SDS011;15333;50.010;20.020;2023-02-28T07:26:01;73.50;;;37.03;;
28007;SDS011;15333;50.010;20.020;2023-02-28T07:29:02;70.75;;;35.33;;
28007;SDS011;15333;50.010;20.020;2023-02-28T07:32:03;80.63;;;37.15;;
28007;SDS011;15333;50.010;20.020;2023-02-28T07:35:04;75.28;;;36.47;;
28007;SDS011;15333;50.010;20.020;2023-02-28T07:38:06;69.40;;;34.88;;
28007;SDS011;15333;50.010;20.020;2023-02-28T07:41:08;71.38;;;34.83;;
28007;SDS011;15333;50.010;20.020;2023-02-28T07:44:10;67.82;;;32.95;;
28007;SDS011;15333;50.010;20.020;2023-02-28T07:47:11;71.32;;;34.30;;
28007;SDS011;15333;50.010;20.020;2023-02-28T07:50:14;71.35;;;33.22;;
28007;SDS011;15333;50.010;20.020;2023-02-28T07:53:16;66.65;;;34.17;;
28007;SDS011;15333;50.010;20.020;2023-02-28T07:56:17;66.07;;;31.98;;
28007;SDS011;15333;50.010;20.020;2023-02-28T07:59:18;66.45;;;32.13;;
28007;SDS011;15333;50.010;20.020;2023-02-28T08:02:19;62.47;;;30.33;;
28007;SDS011;15333;50.010;20.020;2023-02-28T08:05:20;52.13;;;25.98;;
28007;SDS011;15333;50.010;20.020;2023-02-28T08:08:21;61.03;;;27.83;;
28007;SDS011;15333;50.010;20.020;2023-02-28T08:11:22;58.58;;;25.52;;
28007;SDS011;15333;50.010;20.020;2023-02-28T08:14:23;50.72;;;24.13;;
28007;SDS011;15333;50.010;20.020;2023-02-28T08:17:24;49.67;;;25.45;;
28007;SDS011;15333;50.010;20.020;2023-02-28T08:20:25;47.10;;;21.55;;
28007;SDS011;15333;50.010;20.020;2023-02-28T08:23:27;54.20;;;24.60;;
28007;SDS011;15333;50.010;20.020;2023-02-28T08:26:28;59.50;;;25.20;;
28007;SDS011;15333;50.010;20.020;2023-02-28T08:29:29;44.05;;;21.15;;
28007;SDS011;15333;50.010;20.020;2023-02-28T08:32:31;45.22;;;19.92;;
28007;SDS011;15333;50.010;20.020;2023-02-28T08:35:34;35.60;;;18.60;;
28007;SDS011;15333;50.010;20.020;2023-02-28T08:38:36;38.13;;;19.38;;
28007;SDS011;15333;50.010;20.020;2023-02-28T08:41:38;41.53;;;18.50;;
28007;SDS011;15333;50.010;20.020;2023-02-28T08:44:39;38.95;;;18.77;;
28007;SDS011;15333;50.010;20.020;2023-02-28T08:47:41;27.58;;;12.75;;
28007;SDS011;15333;50.010;20.020;2023-02-28T08:50:42;23.08;;;12.18;;
28007;SDS011;15333;50.010;20.020;2023-02-28T08:53:43;21.20;;;10.25;;
28007;SDS011;15333;50.010;20.020;2023-02-28T08:56:45;24.38;;;11.57;;
28007;SDS011;15333;50.010;20.020;2023-02-28T08:59:49;17.13;;;9.10;;
28007;SDS011;15333;50.010;20.020;2023-02-28T09:02:51;17.95;;;9.23;;
28007;SDS011;15333;50.010;20.020;2023-02-28T09:05:57;18.55;;;8.45;;
28007;SDS011;15333;50.010;20.020;2023-02-28T09:08:59;17.40;;;9.38;;
28007;SDS011;15333;50.010;20.020;2023-02-28T09:12:02;20.23;;;10.02;;
28007;SDS011;15333;50.010;20.020;2023-02-28T09:15:04;18.50;;;9.15;;
28007;SDS011;15333;50.010;20.020;2023-02-28T09:18:05;14.50;;;9.02;;
28007;SDS011;15333;50.010;20.020;2023-02-28T09:21:07;17.33;;;9.88;;
28007;SDS011;15333;50.010;20.020;2023-02-28T09:24:09;16.08;;;9.77;;
28007;SDS011;15333;50.010;20.020;2023-02-28T09:27:12;21.95;;;10.15;;
28007;SDS011;15333;50.010;20.020;2023-02-28T09:30:13;21.85;;;9.27;;
28007;SDS011;15333;50.010;20.020;2023-02-28T09:33:17;19.10;;;9.35;;
28007;SDS011;15333;50.010;20.020;2023-02-28T09:36:21;20.90;;;9.23;;
28007;SDS011;15333;50.010;20.020;2023-02-28T09:39:23;16.30;;;9.57;;
28007;SDS011;15333;50.010;20.020;2023-02-28T09:42:29;19.25;;;8.40;;
28007;SDS011;15333;50.010;20.020;2023-02-28T09:45:35;14.50;;;7.18;;
28007;SDS011;15333;50.010;20.020;2023-02-28T09:48:43;18.40;;;10.05;;
28007;SDS011;15333;50.010;20.020;2023-02-28T09:51:56;20.65;;;11.02;;
28007;SDS011;15333;50.010;20.020;2023-02-28T09:55:19;16.42;;;9.30;;
28007;SDS011;15333;50.010;20.020;2023-02-28T09:58:51;20.15;;;10.52;;
28007;SDS011;15333;50.010;20.020;2023-02-28T10:02:00;21.38;;;9.95;;
28007;SDS011;15333;50.010;20.020;2023-02-28T10:09:01;15.32;;;6.45;;
28007;SDS011;15333;50.010;20.020;2023-02-28T10:12:13;21.00;;;9.85;;
28007;SDS011;15333;50.010;20.020;2023-02-28T10:15:17;20.95;;;9.43;;
28007;SDS011;15333;50.010;20.020;2023-02-28T10:18:20;22.08;;;11.18;;
28007;SDS011;15333;50.010;20.020;2023-02-28T10:21:44;19.65;;;10.30;;
28007;SDS011;15333;50.010;20.020;2023-02-28T10:24:57;22.27;;;10.35;;
28007;SDS011;15333;50.010;20.020;2023-02-28T10:28:04;18.02;;;8.88;;
28007;SDS011;15333;50.010;20.020;2023-02-28T10:31:11;22.73;;;9.98;;
28007;SDS011;15333;50.010;20.020;2023-02-28T10:34:18;20.83;;;10.52;;
28007;SDS011;15333;50.010;20.020;2023-02-28T10:37:18;19.95;;;10.25;;
28007;SDS011;15333;50.010;20.020;2023-02-28T10:43:21;20.23;;;10.18;;
28007;SDS011;15333;50.010;20.020;2023-02-28T10:46:24;18.38;;;10.18;;
28007;SDS011;15333;50.010;20.020;2023-02-28T10:49:27;17.08;;;9.63;;
28007;SDS011;15333;50.010;20.020;2023-02-28T10:52:33;20.45;;;10.57;;
28007;SDS011;15333;50.010;20.020;2023-02-28T10:55:38;22.25;;;10.57;;
28007;SDS011;15333;50.010;20.020;2023-02-28T10:58:53;21.98;;;9.82;;
28007;SDS011;15333;50.010;20.020;2023-02-28T11:01:56;18.85;;;9.20;;
28007;SDS011;15333;50.010;20.020;2023-02-28T11:04:57;21.90;;;10.05;;
28007;SDS011;15333;50.010;20.020;2023-02-28T11:08:15;19.20;;;11.63;;
28007;SDS011;15333;50.010;20.020;2023-02-28T11:14:22;20.95;;;12.35;;
28007;SDS011;15333;50.010;20.020;2023-02-28T11:17:27;24.27;;;11.95;;
28007;SDS011;15333;50.010;20.020;2023-02-28T11:20:32;24.75;;;11.77;;
28007;SDS011;15333;50.010;20.020;2023-02-28T11:23:35;19.65;;;9.90;;
28007;SDS011;15333;50.010;20.020;2023-02-28T11:26:45;22.13;;;11.80;;
28007;SDS011;15333;50.010;20.020;2023-02-28T11:29:49;22.17;;;11.93;;
28007;SDS011;15333;50.010;20.020;2023-02-28T11:32:50;20.63;;;11.55;;
28007;SDS011;15333;50.010;20.020;2023-02-28T11:35:51;18.42;;;9.20;;
28007;SDS011;15333;50.010;20.020;2023-02-28T11:38:54;18.35;;;9.57;;
28007;SDS011;15333;50.010;20.020;2023-02-28T11:42:40;18.17;;;8.05;;
28007;SDS011;15333;50.010;20.020;2023-02-28T11:45:39;18.08;;;7.85;;
28007;SDS011;15333;50.010;20.020;2023-02-28T11:49:12;15.32;;;8.82;;
28007;SDS011;15333;50.010;20.020;2023-02-28T11:55:49;19.48;;;8.93;;
28007;SDS011;15333;50.010;20.020;2023-02-28T11:58:59;18.38;;;8.95;;
28007;SDS011;15333;50.010;20.020;2023-02-28T12:02:47;17.25;;;9.18;;
28007;SDS011;15333;50.010;20.020;2023-02-28T12:16:41;16.88;;;9.13;;
28007;SDS011;15333;50.010;20.020;2023-02-28T12:27:06;17.33;;;10.00;;
28007;SDS011;15333;50.010;20.020;2023-02-28T12:30:13;17.75;;;10.52;;
28007;SDS011;15333;50.010;20.020;2023-02-28T12:33:20;18.80;;;8.27;;
28007;SDS011;15333;50.010;20.020;2023-02-28T12:36:25;18.33;;;9.60;;
28007;SDS011;15333;50.010;20.020;2023-02-28T12:39:31;18.40;;;11.13;;
28007;SDS011;15333;50.010;20.020;2023-02-28T12:42:39;18.63;;;9.57;;
28007;SDS011;15333;50.010;20.020;2023-02-28T12:45:53;18.13;;;11.30;;
28007;SDS011;15333;50.010;20.020;2023-02-28T12:49:12;18.20;;;10.15;;
28007;SDS011;15333;50.010;20.020;2023-02-28T12:55:53;19.77;;;10.40;;
28007;SDS011;15333;50.010;20.020;2023-02-28T12:59:03;18.55;;;9.93;;
28007;SDS011;15333;50.010;20.020;2023-02-28T13:09:12;24.15;;;10.98;;
28007;SDS011;15333;50.010;20.020;2023-02-28T13:12:15;28.00;;;12.15;;
28007;SDS011;15333;50.010;20.020;2023-02-28T13:15:21;16.80;;;10.68;;
28007;SDS011;15333;50.010;20.020;2023-02-28T13:18:32;16.95;;;10.20;;
28007;SDS011;15333;50.010;20.020;2023-02-28T13:21:41;23.90;;;11.18;;
28007;SDS011;15333;50.010;20.020;2023-02-28T13:24:46;18.52;;;10.23;;
28007;SDS011;15333;50.010;20.020;2023-02-28T13:27:50;21.10;;;10.27;;
28007;SDS011;15333;50.010;20.020;2023-02-28T13:31:01;20.30;;;10.88;;
28007;SDS011;15333;50.010;20.020;2023-02-28T13:34:05;19.35;;;10.73;;
28007;SDS011;15333;50.010;20.020;2023-02-28T13:53:38;18.77;;;10.98;;
28007;SDS011;15333;50.010;20.020;2023-02-28T14:07:04;26.90;;;12.30;;
28007;SDS011;15333;50.010;20.020;2023-02-28T14:10:07;20.73;;;11.20;;
28007;SDS011;15333;50.010;20.020;2023-02-28T14:16:27;21.63;;;10.55;;
28007;SDS011;15333;50.010;20.020;2023-02-28T14:19:37;22.10;;;10.85;;
28007;SDS011;15333;50.010;20.020;2023-02-28T14:29:53;25.50;;;11.77;;
28007;SDS011;15333;50.010;20.020;2023-02-28T14:36:33;19.25;;;10.52;;
28007;SDS011;15333;50.010;20.020;2023-02-28T14:39:40;20.90;;;11.27;;
28007;SDS011;15333;50.010;20.020;2023-02-28T14:42:46;26.27;;;12.48;;
28007;SDS011;15333;50.010;20.020;2023-02-28T14:45:56;19.38;;;10.82;;
28007;SDS011;15333;50.010;20.020;2023-02-28T14:48:59;24.90;;;12.02;;
28007;SDS011;15333;50.010;20.020;2023-02-28T14:52:22;20.77;;;11.95;;
28007;SDS011;15333;50.010;20.020;2023-02-28T14:55:25;20.30;;;11.02;;
28007;SDS011;15333;50.010;20.020;2023-02-28T14:58:31;21.48;;;12.27;;
28007;SDS011;15333;50.010;20.020;2023-02-28T15:01:33;31.08;;;13.95;;
28007;SDS011;15333;50.010;20.020;2023-02-28T15:04:34;28.45;;;14.95;;
28007;SDS011;15333;50.010;20.020;2023-02-28T15:07:35;23.55;;;13.48;;
28007;SDS011;15333;50.010;20.020;2023-02-28T15:10:37;35.83;;;14.80;;
28007;SDS011;15333;50.010;20.020;2023-02-28T15:13:51;23.75;;;12.75;;
28007;SDS011;15333;50.010;20.020;2023-02-28T15:16:57;19.30;;;10.32;;
28007;SDS011;15333;50.010;20.020;2023-02-28T15:20:02;25.05;;;12.52;;
28007;SDS011;15333;50.010;20.020;2023-02-28T15:23:03;18.95;;;11.60;;
28007;SDS011;15333;50.010;20.020;2023-02-28T15:26:04;22.52;;;12.40;;
28007;SDS011;15333;50.010;20.020;2023-02-28T15:29:08;24.35;;;12.60;;
28007;SDS011;15333;50.010;20.020;2023-02-28T15:32:51;25.77;;;13.15;;
28007;SDS011;15333;50.010;20.020;2023-02-28T15:35:41;25.65;;;12.82;;
28007;SDS011;15333;50.010;20.020;2023-02-28T15:38:43;23.00;;;11.82;;
28007;SDS011;15333;50.010;20.020;2023-02-28T15:41:44;24.60;;;11.50;;
28007;SDS011;15333;50.010;20.020;2023-02-28T15:44:45;22.42;;;12.13;;
28007;SDS011;15333;50.010;20.020;2023-02-28T15:47:47;22.35;;;12.07;;
28007;SDS011;15333;50.010;20.020;2023-02-28T15:50:49;23.83;;;12.98;;
28007;SDS011;15333;50.010;20.020;2023-02-28T15:53:57;24.13;;;12.10;;
28007;SDS011;15333;50.010;20.020;2023-02-28T15:57:01;25.63;;;12.68;;
28007;SDS011;15333;50.010;20.020;2023-02-28T16:00:11;22.50;;;10.88;;
28007;SDS011;15333;50.010;20.020;2023-02-28T16:03:32;29.05;;;13.38;;
28007;SDS011;15333;50.010;20.020;2023-02-28T16:06:46;29.75;;;14.13;;
28007;SDS011;15333;50.010;20.020;2023-02-28T16:10:00;31.02;;;13.07;;
28007;SDS011;15333;50.010;20.020;2023-02-28T16:13:02;24.42;;;13.57;;
28007;SDS011;15333;50.010;20.020;2023-02-28T16:16:03;31.60;;;15.40;;
28007;SDS011;15333;50.010;20.020;2023-02-28T16:19:05;30.63;;;14.75;;
28007;SDS011;15333;50.010;20.020;2023-02-28T16:22:08;31.92;;;14.60;;
28007;SDS011;15333;50.010;20.020;2023-02-28T16:25:13;33.65;;;15.70;;
28007;SDS011;15333;50.010;20.020;2023-02-28T16:28:20;31.50;;;15.27;;
28007;SDS011;15333;50.010;20.020;2023-02-28T16:31:24;30.83;;;15.98;;
28007;SDS011;15333;50.010;20.020;2023-02-28T16:34:25;31.52;;;15.40;;
28007;SDS011;15333;50.010;20.020;2023-02-28T16:37:29;30.27;;;14.73;;
28007;SDS011;15333;50.010;20.020;2023-02-28T16:40:32;26.55;;;15.77;;
28007;SDS011;15333;50.010;20.020;2023-02-28T16:43:35;32.22;;;15.05;;
28007;SDS011;15333;50.010;20.020;2023-02-28T16:46:36;27.42;;;15.43;;
28007;SDS011;15333;50.010;20.020;2023-02-28T16:49:37;29.33;;;14.55;;
28007;SDS011;15333;50.010;20.020;2023-02-28T16:52:38;28.60;;;14.82;;
28007;SDS011;15333;50.010;20.020;2023-02-28T16:55:39;31.05;;;15.38;;
28007;SDS011;15333;50.010;20.020;2023-02-28T16:58:40;31.00;;;16.42;;
28007;SDS011;15333;50.010;20.020;2023-02-28T17:01:41;33.95;;;16.35;;
28007;SDS011;15333;50.010;20.020;2023-02-28T17:04:42;34.00;;;16.38;;
28007;SDS011;15333;50.010;20.020;2023-02-28T17:07:43;34.45;;;17.55;;
28007;SDS011;15333;50.010;20.020;2023-02-28T17:10:44;52.92;;;26.88;;
28007;SDS011;15333;50.010;20.020;2023-02-28T17:13:46;33.92;;;17.77;;
28007;SDS011;15333;50.010;20.020;2023-02-28T17:16:47;37.22;;;17.65;;
28007;SDS011;15333;50.010;20.020;2023-02-28T17:19:48;38.83;;;16.98;;
28007;SDS011;15333;50.010;20.020;2023-02-28T17:22:50;30.00;;;16.77;;
28007;SDS011;15333;50.010;20.020;2023-02-28T17:25:51;33.47;;;18.17;;
28007;SDS011;15333;50.010;20.020;2023-02-28T17:28:55;32.15;;;16.52;;
28007;SDS011;15333;50.010;20.020;2023-02-28T17:31:57;31.17;;;16.20;;
28007;SDS011;15333;50.010;20.020;2023-02-28T17:34:58;133.40;;;48.22;;
28007;SDS011;15333;50.010;20.020;2023-02-28T17:37:59;36.72;;;18.80;;
28007;SDS011;15333;50.010;20.020;2023-02-28T17:41:00;39.20;;;17.65;;
28007;SDS011;15333;50.010;20.020;2023-02-28T17:44:01;34.65;;;18.00;;
28007;SDS011;15333;50.010;20.020;2023-02-28T17:47:02;38.78;;;19.48;;
28007;SDS011;15333;50.010;20.020;2023-02-28T17:50:03;39.00;;;20.52;;
28007;SDS011;15333;50.010;20.020;2023-02-28T17:53:04;39.33;;;20.95;;
28007;SDS011;15333;50.010;20.020;2023-02-28T17:56:08;45.55;;;21.80;;
28007;SDS011;15333;50.010;20.020;2023-02-28T17:59:13;50.25;;;24.30;;
28007;SDS011;15333;50.010;20.020;2023-02-28T18:02:14;46.83;;;24.55;;
28007;SDS011;15333;50.010;20.020;2023-02-28T18:05:16;50.83;;;26.15;;
28007;SDS011;15333;50.010;20.020;2023-02-28T18:08:18;52.10;;;25.05;;
28007;SDS011;15333;50.010;20.020;2023-02-28T18:11:19;58.30;;;26.67;;
28007;SDS011;15333;50.010;20.020;2023-02-28T18:14:22;59.83;;;28.88;;
28007;SDS011;15333;50.010;20.020;2023-02-28T18:17:25;66.05;;;28.95;;
28007;SDS011;15333;50.010;20.020;2023-02-28T18:20:27;62.03;;;27.58;;
28007;SDS011;15333;50.010;20.020;2023-02-28T18:23:28;61.13;;;28.92;;
28007;SDS011;15333;50.010;20.020;2023-02-28T18:26:30;78.03;;;31.02;;
28007;SDS011;15333;50.010;20.020;2023-02-28T18:29:31;79.47;;;35.85;;
28007;SDS011;15333;50.010;20.020;2023-02-28T18:32:33;93.07;;;39.33;;
28007;SDS011;15333;50.010;20.020;2023-02-28T18:35:33;107.75;;;46.85;;
28007;SDS011;15333;50.010;20.020;2023-02-28T18:38:35;118.40;;;49.88;;
28007;SDS011;15333;50.010;20.020;2023-02-28T18:41:36;131.18;;;53.00;;
28007;SDS011;15333;50.010;20.020;2023-02-28T18:44:38;130.00;;;55.25;;
28007;SDS011;15333;50.010;20.020;2023-02-28T18:47:39;120.90;;;51.50;;
28007;SDS011;15333;50.010;20.020;2023-02-28T18:50:40;118.00;;;53.55;;
28007;SDS011;15333;50.010;20.020;2023-02-28T18:53:41;130.85;;;54.05;;
28007;SDS011;15333;50.010;20.020;2023-02-28T18:56:43;116.15;;;50.38;;
28007;SDS011;15333;50.010;20.020;2023-02-28T18:59:45;112.22;;;52.58;;
28007;SDS011;15333;50.010;20.020;2023-02-28T19:02:46;123.07;;;53.65;;
28007;SDS011;15333;50.010;20.020;2023-02-28T19:05:46;120.75;;;55.25;;
28007;SDS011;15333;50.010;20.020;2023-02-28T19:08:51;130.93;;;61.47;;
28007;SDS011;15333;50.010;20.020;2023-02-28T19:11:55;124.15;;;56.60;;
28007;SDS011;15333;50.010;20.020;2023-02-28T19:14:57;131.30;;;59.35;;
28007;SDS011;15333;50.010;20.020;2023-02-28T19:17:58;124.57;;;57.83;;
28007;SDS011;15333;50.010;20.020;2023-02-28T19:20:59;127.10;;;56.90;;
28007;SDS011;15333;50.010;20.020;2023-02-28T19:24:01;119.53;;;54.40;;
28007;SDS011;15333;50.010;20.020;2023-02-28T19:27:03;131.57;;;55.60;;
28007;SDS011;15333;50.010;20.020;2023-02-28T19:30:03;125.30;;;54.42;;
28007;SDS011;15333;50.010;20.020;2023-02-28T19:33:06;122.65;;;54.58;;
28007;SDS011;15333;50.010;20.020;2023-02-28T19:36:07;118.10;;;54.08;;
28007;SDS011;15333;50.010;20.020;2023-02-28T19:39:10;116.20;;;51.53;;
28007;SDS011;15333;50.010;20.020;2023-02-28T19:42:12;109.80;;;51.92;;